Greenville, TX

4:41 PM CDT on October 21, 2014 (GMT -0500)
Farmers Electric Coop | Change Station
CLOSE
Current Station
Personal Weather Station
Location: Greenville, TX
Elevation: 535 ft
Nearby Weather Stations

Elev 535 ft 33.14 °N, 96.06 °W | Updated 1 minute ago

Clear
Clear
82.9 °F
Feels Like 84 °F
N
3.8
Wind Variable Wind from SE
Gusts 6.0 mph

Today
High -- | Low -- °F
--% Chance of Precip.
Yesterday
High -- | Low -- °F
Precip. -- in
7:33 AM 6:44 PM
Waning Crescent, 4% visible
Pressure 30.04 in
Visibility 10.0 miles
Clouds Clear
Heat Index 84 °F
Dew Point 62 °F
Humidity 50%
Rainfall 0.00 in
Snow Depth Not available.
UV 3 out of 12
Pollen 6.10 out of 12
Ozone Moderate
PM2.5 Moderate
Flu Activity Sporadic
METAR KGVT 212115Z AUTO 11003KT 10SM CLR 27/13 A3004 RMK AO2

More Conditions Fewer Conditions

Pressure 30.04 in
Visibility 10.0 miles
Clouds Clear
Heat Index 84 °F
Dew Point 62 °F
Humidity 50%
Rainfall 0.00 in
Snow Depth Not available.
UV 3 out of 12
Pollen 6.10 out of 12
Ozone Moderate
PM2.5 Moderate
Flu Activity Sporadic
METAR KGVT 212115Z AUTO 11003KT 10SM CLR 27/13 A3004 RMK AO2

More Conditions Fewer Conditions

10-Day Weather Forecast

Almanac

Astronomy

Oct. 21, 2014 Rise Set
Actual Time 7:33 AM CDT 6:44 PM CDT
Civil Twilight 7:08 AM CDT 7:09 PM CDT
Nautical Twilight 6:39 AM CDT 7:38 PM CDT
Astronomical Twilight 6:10 AM CDT 8:06 PM CDT
Moon 5:25 AM CDT 5:33 PM CDT
Length of Visible Light 12h 00m
Length of Day
11h 10m
Tomorrow will be 1m 56s shorter.
Waning Crescent, 4% of the Moon is Illuminated
Today
Waning Crescent
Oct 23
New
Oct 30
First Quarter
Nov 6
Full
Nov 14
Last Quarter

Today's Extremes

State Highs State Lows

Community

WunderPhotos

Upload Photos

1,763,785 photos uploaded!

Nearby

Air Quality

  Air Quality AQ Index Pollutant
Yesterday Moderate
PM2.5
Yesterday Moderate
OZONE
Current Moderate
OZONE
Current Moderate
PM2.5
Tuesday Moderate
OZONE
Tuesday Good
PM10
Wednesday Moderate
OZONE
Wednesday Good
PM10
Thursday Moderate
OZONE
Thursday Good
PM10
Friday Moderate
OZONE
Friday Good
PM10

Snow Depth

Station Depth Elevation
No new snow has been reported.

Earthquake Activity

City Distance Mag. Time & Date
No recent earthquake activity has been reported nearby.
Minimum magnitude displayed is 2.5.

Coastal Water Temperatures

Place Temperature
No Stations Reporting

Nearby Weather Stations